createdAt,value
2023-11-05T00:01:32.464Z,10.10
2023-11-05T00:04:01.051Z,10.10
2023-11-05T00:06:28.481Z,10.10
2023-11-05T00:08:55.435Z,10.10
2023-11-05T00:11:22.441Z,10.00
2023-11-05T00:13:49.360Z,10.10
2023-11-05T00:16:16.439Z,10.00
2023-11-05T00:18:43.714Z,10.00
2023-11-05T00:23:39.365Z,9.90
2023-11-05T00:26:06.714Z,9.90
2023-11-05T00:28:34.197Z,9.90
2023-11-05T00:31:01.309Z,9.80
2023-11-05T00:33:28.485Z,9.80
2023-11-05T00:35:55.516Z,9.70
2023-11-05T00:38:23.884Z,9.70
2023-11-05T00:40:50.781Z,9.80
2023-11-05T00:43:18.052Z,9.80
2023-11-05T00:45:45.620Z,9.80
2023-11-05T00:48:13.003Z,9.80
2023-11-05T00:50:39.986Z,9.80
2023-11-05T00:53:07.640Z,9.80
2023-11-05T00:55:36.142Z,9.80
2023-11-05T00:58:03.500Z,9.70
2023-11-05T01:00:30.510Z,9.80
2023-11-05T01:02:57.805Z,9.70
2023-11-05T01:05:24.741Z,9.60
2023-11-05T01:07:52.016Z,9.60
2023-11-05T01:10:19.025Z,9.60
2023-11-05T01:12:47.563Z,9.60
2023-11-05T01:15:14.997Z,9.50
2023-11-05T01:17:42.257Z,9.50
2023-11-05T01:20:10.606Z,9.50
2023-11-05T01:22:38.163Z,9.50
2023-11-05T01:25:06.735Z,9.50
2023-11-05T01:27:34.044Z,9.50
2023-11-05T01:30:02.453Z,9.60
2023-11-05T01:32:29.831Z,9.50
2023-11-05T01:34:56.995Z,9.50
2023-11-05T01:37:24.036Z,9.50
2023-11-05T01:39:51.451Z,9.50
2023-11-05T01:42:18.474Z,9.50
2023-11-05T01:44:45.724Z,9.60
2023-11-05T01:47:14.477Z,9.60
2023-11-05T01:49:42.230Z,9.60
2023-11-05T01:52:10.446Z,9.60
2023-11-05T01:54:37.693Z,9.60
2023-11-05T01:57:05.829Z,9.60
2023-11-05T01:59:33.902Z,9.60
2023-11-05T02:02:02.121Z,9.60
2023-11-05T02:04:31.131Z,9.60
2023-11-05T02:06:58.226Z,9.60
2023-11-05T02:09:25.755Z,9.70
2023-11-05T02:11:53.172Z,9.50
2023-11-05T02:14:20.718Z,9.50
2023-11-05T02:16:47.647Z,9.50
2023-11-05T02:19:15.009Z,9.50
2023-11-05T02:21:45.459Z,9.50
2023-11-05T02:24:14.447Z,9.60
2023-11-05T02:26:41.667Z,9.60
2023-11-05T02:29:09.048Z,9.60
2023-11-05T02:31:36.072Z,9.70
2023-11-05T02:34:03.788Z,9.70
2023-11-05T02:36:30.785Z,9.80
2023-11-05T02:38:58.037Z,9.80
2023-11-05T02:41:26.315Z,9.80
2023-11-05T02:43:53.256Z,9.80
2023-11-05T02:46:20.559Z,9.80
2023-11-05T02:48:47.729Z,9.90
2023-11-05T02:51:14.736Z,9.90
2023-11-05T02:53:42.328Z,9.90
2023-11-05T02:56:09.973Z,9.90
2023-11-05T02:58:38.295Z,9.90
2023-11-05T03:01:06.474Z,9.90
2023-11-05T03:03:33.576Z,9.90
2023-11-05T03:06:00.994Z,10.00
2023-11-05T03:08:28.007Z,9.90
2023-11-05T03:10:56.923Z,9.90
2023-11-05T03:13:23.940Z,9.90
2023-11-05T03:15:52.556Z,9.90
2023-11-05T03:18:19.564Z,9.90
2023-11-05T03:20:46.865Z,9.80
2023-11-05T03:23:13.852Z,9.70
2023-11-05T03:25:42.567Z,9.70
2023-11-05T03:28:09.594Z,9.70
2023-11-05T03:30:36.919Z,9.80
2023-11-05T03:33:06.947Z,9.80
2023-11-05T03:35:34.450Z,9.90
2023-11-05T03:38:01.728Z,9.90
2023-11-05T03:40:29.112Z,10.00
2023-11-05T03:42:56.043Z,10.00
2023-11-05T03:45:23.414Z,10.00
2023-11-05T03:47:50.405Z,10.00
2023-11-05T03:50:19.353Z,10.00
2023-11-05T03:52:46.283Z,10.10
2023-11-05T03:55:13.369Z,10.10
2023-11-05T03:57:40.361Z,10.20
2023-11-05T04:00:09.348Z,10.20
2023-11-05T04:02:36.383Z,10.20
2023-11-05T04:05:04.437Z,10.20
2023-11-05T04:07:32.766Z,10.20
2023-11-05T04:09:59.996Z,10.20
2023-11-05T04:12:26.903Z,10.20
2023-11-05T04:14:53.895Z,10.20
2023-11-05T04:17:20.840Z,10.20
2023-11-05T04:19:48.093Z,10.60
2023-11-05T04:22:15.346Z,10.20
2023-11-05T04:24:43.892Z,10.20
2023-11-05T04:27:11.223Z,10.20
2023-11-05T04:29:38.188Z,10.30
2023-11-05T04:32:05.913Z,10.30
2023-11-05T04:34:33.842Z,10.30
2023-11-05T04:37:02.667Z,10.40
2023-11-05T04:39:29.901Z,10.40
2023-11-05T04:41:58.602Z,10.40
2023-11-05T04:44:25.526Z,10.50
2023-11-05T04:46:52.974Z,10.40
2023-11-05T04:49:20.357Z,10.50
2023-11-05T04:51:47.650Z,10.50
2023-11-05T04:54:14.767Z,10.50
2023-11-05T04:56:43.175Z,10.60
2023-11-05T04:59:11.576Z,10.60
2023-11-05T05:01:39.009Z,10.60
2023-11-05T05:04:06.501Z,10.60
2023-11-05T05:06:33.849Z,10.60
2023-11-05T05:09:00.778Z,10.60
2023-11-05T05:11:27.974Z,10.70
2023-11-05T05:13:54.924Z,10.60
2023-11-05T05:16:24.036Z,10.50
2023-11-05T05:18:51.014Z,10.40
2023-11-05T05:21:18.142Z,10.30
2023-11-05T05:23:45.076Z,11.00
2023-11-05T05:26:12.216Z,10.10
2023-11-05T05:28:39.248Z,10.00
2023-11-05T05:31:06.465Z,10.00
2023-11-05T05:33:34.794Z,9.90
2023-11-05T05:36:02.106Z,9.80
2023-11-05T05:38:29.201Z,9.80
2023-11-05T05:40:56.209Z,9.80
2023-11-05T05:43:23.485Z,9.80
2023-11-05T05:45:50.453Z,9.80
2023-11-05T05:48:17.465Z,9.80
2023-11-05T05:50:45.872Z,9.80
2023-11-05T05:53:13.018Z,9.80
2023-11-05T05:55:42.061Z,9.70
2023-11-05T05:58:09.490Z,9.70
2023-11-05T06:00:36.458Z,9.70
2023-11-05T06:03:03.841Z,9.70
2023-11-05T06:05:31.142Z,9.70
2023-11-05T06:08:00.059Z,9.70
2023-11-05T06:10:27.144Z,9.70
2023-11-05T06:12:54.449Z,9.70
2023-11-05T06:15:21.496Z,9.70
2023-11-05T06:17:48.887Z,9.70
2023-11-05T06:20:16.115Z,9.60
2023-11-05T06:22:43.910Z,9.70
2023-11-05T06:25:12.477Z,9.60
2023-11-05T06:27:40.834Z,9.70
2023-11-05T06:30:09.479Z,9.70
2023-11-05T06:32:36.780Z,9.60
2023-11-05T06:35:04.265Z,9.70
2023-11-05T06:37:32.629Z,9.60
2023-11-05T06:40:00.595Z,9.60
2023-11-05T06:42:29.234Z,9.60
2023-11-05T06:44:56.151Z,9.70
2023-11-05T06:47:23.468Z,9.60
2023-11-05T06:49:50.421Z,9.70
2023-11-05T06:52:17.814Z,9.90
2023-11-05T06:54:45.263Z,9.80
2023-11-05T06:57:12.571Z,9.70
2023-11-05T06:59:41.014Z,9.70
2023-11-05T07:02:11.782Z,9.70
2023-11-05T07:04:39.431Z,9.80
2023-11-05T07:07:06.928Z,9.70
2023-11-05T07:09:34.346Z,9.60
2023-11-05T07:12:01.364Z,9.70
2023-11-05T07:14:29.266Z,9.60
2023-11-05T07:16:57.574Z,9.70
2023-11-05T07:19:24.732Z,9.70
2023-11-05T07:21:51.690Z,9.70
2023-11-05T07:24:18.982Z,9.70
2023-11-05T07:26:45.908Z,9.60
2023-11-05T07:29:14.967Z,9.70
2023-11-05T07:31:43.025Z,9.70
2023-11-05T07:34:12.780Z,9.70
2023-11-05T07:36:40.286Z,9.80
2023-11-05T07:39:10.920Z,9.80
2023-11-05T07:41:38.846Z,9.80
2023-11-05T07:44:06.522Z,9.90
2023-11-05T07:46:34.787Z,9.90
2023-11-05T07:49:02.112Z,9.90
2023-11-05T07:51:30.934Z,9.90
2023-11-05T07:53:58.341Z,9.90
2023-11-05T07:56:25.329Z,10.00
2023-11-05T07:58:52.717Z,10.00
2023-11-05T08:01:19.783Z,10.00
2023-11-05T08:03:47.018Z,10.10
2023-11-05T08:06:14.058Z,10.10
2023-11-05T08:08:43.126Z,10.60
2023-11-05T08:11:10.212Z,10.20
2023-11-05T08:13:37.776Z,10.20
2023-11-05T08:16:05.321Z,10.20
2023-11-05T08:18:32.719Z,10.20
2023-11-05T08:20:59.700Z,10.30
2023-11-05T08:23:26.978Z,10.40
2023-11-05T08:25:56.073Z,10.30
2023-11-05T08:28:26.146Z,10.30
2023-11-05T08:30:54.764Z,10.40
2023-11-05T08:33:22.067Z,10.40
2023-11-05T08:35:49.819Z,10.50
2023-11-05T08:38:16.880Z,10.50
2023-11-05T08:40:44.323Z,10.50
2023-11-05T08:43:12.683Z,10.60
2023-11-05T08:45:45.779Z,10.60
2023-11-05T08:48:17.530Z,10.70
2023-11-05T08:50:44.992Z,10.70
2023-11-05T08:53:12.023Z,10.80
2023-11-05T08:55:39.804Z,10.90
2023-11-05T08:58:06.794Z,10.90
2023-11-05T09:00:36.932Z,11.10
2023-11-05T09:03:08.247Z,11.20
2023-11-05T09:05:35.383Z,11.30
2023-11-05T09:08:02.334Z,11.30
2023-11-05T09:10:31.297Z,11.40
2023-11-05T09:13:00.889Z,11.50
2023-11-05T09:15:28.196Z,11.50
2023-11-05T09:17:56.711Z,11.60
2023-11-05T09:20:23.858Z,11.70
2023-11-05T09:22:51.134Z,11.70
2023-11-05T09:25:20.080Z,11.70
2023-11-05T09:27:47.159Z,11.70
2023-11-05T09:30:16.335Z,11.60
2023-11-05T09:32:44.126Z,11.50
2023-11-05T09:35:14.154Z,11.50
2023-11-05T09:37:42.730Z,11.40
2023-11-05T09:40:12.190Z,11.50
2023-11-05T09:42:45.521Z,11.50
2023-11-05T09:45:14.081Z,11.50
2023-11-05T09:47:42.146Z,11.60
2023-11-05T09:50:13.633Z,11.60
2023-11-05T09:52:42.935Z,11.60
2023-11-05T09:55:10.825Z,11.60
2023-11-05T09:57:38.282Z,11.70
2023-11-05T10:00:11.070Z,11.70
2023-11-05T10:02:56.333Z,11.70
2023-11-05T10:05:24.241Z,11.70
2023-11-05T10:07:52.953Z,11.70
2023-11-05T10:10:20.127Z,11.80
2023-11-05T10:12:47.264Z,11.80
2023-11-05T10:15:14.995Z,11.80
2023-11-05T10:17:42.050Z,11.70
2023-11-05T10:20:12.074Z,11.70
2023-11-05T10:22:44.189Z,11.70
2023-11-05T10:25:25.730Z,11.70
2023-11-05T10:27:54.767Z,11.70
2023-11-05T10:30:22.165Z,11.70
2023-11-05T10:32:50.730Z,11.70
2023-11-05T10:35:19.802Z,11.80
2023-11-05T10:37:48.614Z,11.80
2023-11-05T10:40:17.126Z,11.80
2023-11-05T10:42:47.199Z,11.90
2023-11-05T10:45:14.716Z,11.90
2023-11-05T10:47:42.344Z,12.00
2023-11-05T10:50:13.080Z,12.00
2023-11-05T10:52:46.443Z,12.00
2023-11-05T10:55:13.936Z,12.00
2023-11-05T10:57:47.750Z,12.10
2023-11-05T11:00:45.487Z,12.00
2023-11-05T11:03:14.822Z,12.00
2023-11-05T11:06:01.310Z,12.10
2023-11-05T11:08:30.594Z,12.00
2023-11-05T11:11:15.419Z,12.00
2023-11-05T11:13:57.925Z,12.00
2023-11-05T11:16:31.156Z,12.10
2023-11-05T11:19:00.978Z,12.10
2023-11-05T11:21:28.097Z,12.10
2023-11-05T11:23:55.178Z,12.20
2023-11-05T11:26:23.649Z,12.20
2023-11-05T11:28:57.003Z,12.30
2023-11-05T11:31:24.677Z,12.30
2023-11-05T11:33:51.786Z,12.40
2023-11-05T11:36:18.793Z,12.40
2023-11-05T11:38:46.670Z,12.40
2023-11-05T11:41:14.041Z,12.30
2023-11-05T11:43:41.589Z,12.30
2023-11-05T11:46:10.460Z,12.30
2023-11-05T11:48:37.474Z,12.30
2023-11-05T11:51:11.310Z,12.40
2023-11-05T11:53:42.099Z,12.30
2023-11-05T11:56:10.120Z,12.30
2023-11-05T11:58:38.639Z,12.40
2023-11-05T12:01:13.083Z,12.30
2023-11-05T12:03:40.896Z,12.30
2023-11-05T12:06:08.130Z,12.20
2023-11-05T12:08:39.650Z,11.40
2023-11-05T12:11:08.292Z,12.00
2023-11-05T12:13:36.796Z,12.40
2023-11-05T12:16:09.737Z,12.40
2023-11-05T12:18:40.532Z,12.30
2023-11-05T12:21:08.925Z,12.50
2023-11-05T12:23:36.983Z,12.10
2023-11-05T12:26:06.428Z,12.20
2023-11-05T12:28:34.493Z,12.00
2023-11-05T12:31:02.555Z,12.00
2023-11-05T12:33:33.048Z,12.10
2023-11-05T12:36:02.146Z,12.10
2023-11-05T12:38:29.309Z,12.10
2023-11-05T12:40:56.982Z,12.10
2023-11-05T12:43:25.573Z,12.10
2023-11-05T12:46:00.616Z,12.10
2023-11-05T12:48:32.323Z,12.60
2023-11-05T12:51:03.764Z,12.70
2023-11-05T12:53:33.765Z,12.60
2023-11-05T12:56:07.720Z,12.40
2023-11-05T12:58:36.334Z,12.40
2023-11-05T13:01:05.670Z,12.30
2023-11-05T13:03:35.872Z,12.30
2023-11-05T13:06:08.866Z,12.30
2023-11-05T13:08:37.916Z,12.30
2023-11-05T13:11:05.827Z,12.60
2023-11-05T13:13:33.616Z,12.80
2023-11-05T13:16:00.733Z,12.90
2023-11-05T13:18:27.908Z,13.20
2023-11-05T13:20:54.895Z,13.20
2023-11-05T13:23:23.677Z,13.10
2023-11-05T13:25:50.723Z,12.90
2023-11-05T13:28:17.909Z,12.80
2023-11-05T13:30:45.896Z,12.60
2023-11-05T13:33:13.156Z,12.60
2023-11-05T13:35:40.337Z,12.60
2023-11-05T13:38:08.866Z,12.60
2023-11-05T13:40:37.556Z,12.60
2023-11-05T13:43:04.527Z,12.70
2023-11-05T13:45:31.569Z,12.70
2023-11-05T13:47:58.699Z,12.80
2023-11-05T13:50:25.731Z,12.90
2023-11-05T13:52:52.773Z,12.90
2023-11-05T13:55:19.764Z,13.00
2023-11-05T13:57:48.407Z,13.10
2023-11-05T14:00:16.171Z,13.00
2023-11-05T14:02:43.597Z,12.90
2023-11-05T14:05:11.025Z,12.90
2023-11-05T14:07:39.150Z,12.80
2023-11-05T14:10:08.721Z,12.60
2023-11-05T14:12:36.591Z,12.50
2023-11-05T14:15:08.954Z,12.40
2023-11-05T14:17:37.120Z,12.50
2023-11-05T14:20:11.714Z,12.50
2023-11-05T14:22:39.759Z,12.50
2023-11-05T14:25:08.632Z,12.50
2023-11-05T14:27:35.829Z,12.50
2023-11-05T14:30:06.675Z,12.50
2023-11-05T14:32:34.023Z,12.50
2023-11-05T14:35:02.802Z,12.40
2023-11-05T14:37:29.816Z,12.50
2023-11-05T14:39:56.798Z,12.40
2023-11-05T14:42:23.698Z,12.40
2023-11-05T14:44:50.710Z,12.40
2023-11-05T14:47:19.008Z,12.40
2023-11-05T14:49:48.268Z,12.30
2023-11-05T14:52:15.872Z,12.40
2023-11-05T14:54:43.445Z,12.30
2023-11-05T14:57:10.519Z,12.30
2023-11-05T14:59:38.209Z,12.30
2023-11-05T15:02:05.787Z,12.30
2023-11-05T15:04:34.572Z,12.20
2023-11-05T15:07:01.632Z,12.20
2023-11-05T15:09:29.300Z,12.20
2023-11-05T15:11:56.219Z,12.20
2023-11-05T15:14:24.309Z,12.10
2023-11-05T15:16:53.458Z,12.00
2023-11-05T15:19:20.543Z,12.00
2023-11-05T15:21:49.059Z,11.90
2023-11-05T15:24:16.780Z,11.80
2023-11-05T15:26:44.156Z,11.70
2023-11-05T15:29:12.252Z,11.70
2023-11-05T15:31:39.270Z,11.50
2023-11-05T15:34:07.186Z,11.50
2023-11-05T15:36:34.563Z,11.40
2023-11-05T15:39:04.792Z,11.40
2023-11-05T15:41:31.719Z,11.30
2023-11-05T15:43:59.603Z,11.20
2023-11-05T15:46:26.655Z,11.20
2023-11-05T15:48:54.613Z,11.00
2023-11-05T15:51:22.819Z,11.00
2023-11-05T15:53:50.575Z,11.00
2023-11-05T15:56:20.043Z,10.90
2023-11-05T15:58:49.986Z,10.90
2023-11-05T16:01:18.756Z,10.90
2023-11-05T16:03:46.356Z,11.00
2023-11-05T16:06:13.450Z,10.90
2023-11-05T16:08:41.401Z,10.80
2023-11-05T16:11:08.927Z,10.90
2023-11-05T16:13:37.462Z,11.00
2023-11-05T16:16:06.234Z,10.80
2023-11-05T16:18:34.036Z,10.80
2023-11-05T16:21:01.630Z,10.80
2023-11-05T16:23:28.644Z,10.80
2023-11-05T16:25:56.077Z,10.80
2023-11-05T16:28:25.518Z,10.90
2023-11-05T16:30:54.839Z,10.80
2023-11-05T16:33:25.108Z,10.80
2023-11-05T16:35:52.714Z,10.80
2023-11-05T16:38:19.732Z,10.80
2023-11-05T16:40:47.135Z,10.80
2023-11-05T16:43:14.382Z,10.80
2023-11-05T16:45:41.629Z,10.70
2023-11-05T16:48:10.041Z,10.70
2023-11-05T16:50:37.033Z,10.70
2023-11-05T16:53:05.411Z,10.70
2023-11-05T16:55:33.132Z,10.60
2023-11-05T16:58:01.217Z,10.60
2023-11-05T17:00:28.173Z,10.60
2023-11-05T17:02:57.412Z,10.50
2023-11-05T17:05:30.685Z,10.50
2023-11-05T17:07:58.026Z,10.60
2023-11-05T17:10:24.997Z,10.50
2023-11-05T17:12:52.357Z,10.50
2023-11-05T17:15:19.407Z,10.50
2023-11-05T17:17:46.403Z,10.50
2023-11-05T17:20:19.945Z,10.50
2023-11-05T17:22:49.665Z,10.50
2023-11-05T17:25:16.616Z,10.50
2023-11-05T17:27:43.933Z,10.50
2023-11-05T17:30:12.091Z,10.50
2023-11-05T17:32:40.093Z,10.60
2023-11-05T17:35:09.061Z,10.60
2023-11-05T17:37:39.620Z,10.60
2023-11-05T17:40:10.576Z,10.60
2023-11-05T17:42:37.518Z,10.60
2023-11-05T17:45:05.587Z,10.60
2023-11-05T17:47:34.260Z,10.60
2023-11-05T17:50:01.386Z,10.70
2023-11-05T17:52:29.766Z,10.70
2023-11-05T17:54:57.215Z,10.70
2023-11-05T17:57:26.006Z,10.70
2023-11-05T17:59:53.386Z,10.60
2023-11-05T18:02:20.372Z,10.70
2023-11-05T18:04:47.744Z,10.60
2023-11-05T18:07:14.758Z,10.50
2023-11-05T18:09:45.446Z,10.60
2023-11-05T18:12:12.409Z,10.60
2023-11-05T18:14:42.871Z,10.60
2023-11-05T18:17:09.911Z,10.60
2023-11-05T18:19:37.239Z,10.60
2023-11-05T18:22:04.466Z,10.60
2023-11-05T18:24:33.636Z,10.60
2023-11-05T18:27:00.613Z,10.60
2023-11-05T18:29:27.924Z,10.60
2023-11-05T18:31:56.339Z,10.70
2023-11-05T18:34:24.898Z,10.60
2023-11-05T18:36:52.889Z,10.60
2023-11-05T18:39:19.881Z,10.60
2023-11-05T18:41:46.900Z,10.60
2023-11-05T18:44:15.838Z,10.50
2023-11-05T18:46:42.958Z,10.50
2023-11-05T18:49:11.699Z,10.50
2023-11-05T18:51:38.916Z,10.50
2023-11-05T18:54:06.151Z,10.60
2023-11-05T18:56:33.993Z,10.50
2023-11-05T18:59:01.053Z,10.60
2023-11-05T19:01:28.220Z,10.50
2023-11-05T19:03:55.401Z,10.60
2023-11-05T19:06:23.847Z,10.60
2023-11-05T19:08:50.891Z,10.60
2023-11-05T19:11:17.914Z,10.60
2023-11-05T19:13:45.373Z,10.60
2023-11-05T19:16:12.554Z,10.70
2023-11-05T19:18:39.971Z,10.60
2023-11-05T19:21:07.118Z,10.60
2023-11-05T19:23:35.501Z,10.70
2023-11-05T19:26:03.664Z,10.70
2023-11-05T19:28:31.291Z,10.70
2023-11-05T19:30:59.486Z,10.70
2023-11-05T19:33:26.892Z,10.80
2023-11-05T19:35:54.086Z,10.80
2023-11-05T19:38:21.122Z,10.80
2023-11-05T19:40:50.018Z,10.80
2023-11-05T19:43:17.683Z,10.80
2023-11-05T19:45:45.722Z,10.70
2023-11-05T19:48:12.931Z,10.70
2023-11-05T19:50:40.526Z,10.70
2023-11-05T19:53:08.008Z,10.80
2023-11-05T19:55:35.371Z,10.70
2023-11-05T19:58:05.753Z,10.80
2023-11-05T20:00:33.169Z,10.80
2023-11-05T20:03:00.223Z,10.70
2023-11-05T20:05:28.115Z,10.80
2023-11-05T20:07:55.215Z,10.70
2023-11-05T20:10:22.330Z,10.60
2023-11-05T20:12:49.285Z,10.60
2023-11-05T20:15:19.676Z,10.50
2023-11-05T20:17:46.657Z,10.60
2023-11-05T20:20:13.753Z,10.60
2023-11-05T20:22:40.772Z,10.60
2023-11-05T20:25:10.203Z,10.60
2023-11-05T20:27:37.810Z,10.50
2023-11-05T20:30:05.946Z,10.50
2023-11-05T20:32:34.322Z,10.40
2023-11-05T20:35:01.636Z,10.40
2023-11-05T20:37:29.851Z,10.40
2023-11-05T20:40:01.364Z,10.30
2023-11-05T20:42:28.439Z,10.40
2023-11-05T20:44:55.654Z,10.30
2023-11-05T20:47:22.592Z,10.30
2023-11-05T20:49:51.028Z,10.30
2023-11-05T20:52:18.294Z,10.30
2023-11-05T20:54:46.230Z,10.20
2023-11-05T20:57:13.304Z,10.20
2023-11-05T20:59:40.383Z,10.20
2023-11-05T21:02:07.499Z,10.20
2023-11-05T21:04:34.616Z,10.10
2023-11-05T21:07:03.600Z,10.20
2023-11-05T21:09:30.630Z,10.20
2023-11-05T21:11:58.695Z,10.20
2023-11-05T21:14:26.022Z,10.20
2023-11-05T21:16:54.753Z,10.20
2023-11-05T21:19:21.843Z,10.10
2023-11-05T21:21:48.803Z,10.20
2023-11-05T21:24:17.103Z,10.10
2023-11-05T21:26:44.025Z,10.20
2023-11-05T21:29:11.039Z,10.10
2023-11-05T21:31:38.152Z,10.20
2023-11-05T21:34:05.142Z,10.20
2023-11-05T21:36:32.497Z,10.10
2023-11-05T21:38:59.456Z,10.10
2023-11-05T21:41:28.208Z,10.20
2023-11-05T21:43:55.397Z,10.10
2023-11-05T21:46:22.419Z,10.20
2023-11-05T21:48:49.412Z,10.20
2023-11-05T21:51:16.526Z,10.20
2023-11-05T21:53:43.563Z,10.20
2023-11-05T21:56:11.747Z,10.30
2023-11-05T21:58:40.230Z,10.30
2023-11-05T22:01:07.881Z,10.60
2023-11-05T22:03:35.139Z,10.80
2023-11-05T22:06:02.550Z,10.80
2023-11-05T22:08:29.611Z,10.80
2023-11-05T22:10:56.965Z,10.70
2023-11-05T22:13:23.921Z,10.60
2023-11-05T22:15:53.318Z,10.50
2023-11-05T22:18:20.368Z,10.40
2023-11-05T22:20:47.447Z,10.40
2023-11-05T22:23:14.528Z,10.30
2023-11-05T22:25:42.171Z,10.30
2023-11-05T22:28:10.069Z,10.20
2023-11-05T22:30:37.971Z,10.10
2023-11-05T22:33:06.891Z,10.00
2023-11-05T22:35:33.954Z,10.00
2023-11-05T22:38:01.309Z,9.90
2023-11-05T22:40:28.476Z,9.80
2023-11-05T22:42:55.782Z,9.90
2023-11-05T22:45:22.834Z,9.90
2023-11-05T22:47:50.202Z,9.80
2023-11-05T22:50:18.702Z,9.90
2023-11-05T22:52:47.154Z,9.90
2023-11-05T22:55:15.998Z,9.90
2023-11-05T22:57:44.388Z,9.90
2023-11-05T23:00:18.900Z,9.90
2023-11-05T23:02:46.243Z,9.90
2023-11-05T23:05:13.448Z,9.90
2023-11-05T23:07:42.717Z,9.90
2023-11-05T23:10:12.684Z,9.90
2023-11-05T23:12:40.120Z,9.80
2023-11-05T23:15:08.979Z,9.80
2023-11-05T23:17:36.514Z,9.80
2023-11-05T23:20:05.716Z,9.90
2023-11-05T23:22:33.085Z,10.00
2023-11-05T23:25:01.480Z,10.10
2023-11-05T23:27:29.080Z,10.20
2023-11-05T23:29:56.039Z,10.20
2023-11-05T23:32:23.379Z,10.30
2023-11-05T23:34:50.532Z,10.30
2023-11-05T23:37:17.873Z,10.30
2023-11-05T23:39:46.740Z,10.30
2023-11-05T23:42:17.215Z,10.40
2023-11-05T23:44:44.819Z,10.40
2023-11-05T23:47:12.436Z,10.40
2023-11-05T23:49:39.459Z,10.40
2023-11-05T23:52:07.462Z,10.40
2023-11-05T23:54:34.527Z,10.40
2023-11-05T23:57:01.536Z,10.40
2023-11-05T23:59:30.255Z,10.40
